sensor_id;sensor_type;location;lat;lon;timestamp;P1;durP1;ratioP1;P2;durP2;ratioP2
52708;SDS011;38606;52.986;6.980;2023-08-12T00:00:56;6.95;;;4.53;;
52708;SDS011;38606;52.986;6.980;2023-08-12T00:03:22;6.88;;;4.30;;
52708;SDS011;38606;52.986;6.980;2023-08-12T00:05:48;6.47;;;4.30;;
52708;SDS011;38606;52.986;6.980;2023-08-12T00:08:13;9.63;;;5.03;;
52708;SDS011;38606;52.986;6.980;2023-08-12T00:10:39;8.27;;;5.07;;
52708;SDS011;38606;52.986;6.980;2023-08-12T00:13:05;8.75;;;5.13;;
52708;SDS011;38606;52.986;6.980;2023-08-12T00:15:31;9.20;;;5.07;;
52708;SDS011;38606;52.986;6.980;2023-08-12T00:17:56;8.82;;;5.35;;
52708;SDS011;38606;52.986;6.980;2023-08-12T00:20:22;10.20;;;5.03;;
52708;SDS011;38606;52.986;6.980;2023-08-12T00:22:48;8.13;;;5.28;;
52708;SDS011;38606;52.986;6.980;2023-08-12T00:25:15;9.30;;;4.93;;
52708;SDS011;38606;52.986;6.980;2023-08-12T00:27:41;7.97;;;4.95;;
52708;SDS011;38606;52.986;6.980;2023-08-12T00:30:06;11.02;;;4.32;;
52708;SDS011;38606;52.986;6.980;2023-08-12T00:32:33;7.70;;;4.68;;
52708;SDS011;38606;52.986;6.980;2023-08-12T00:34:58;8.25;;;4.72;;
52708;SDS011;38606;52.986;6.980;2023-08-12T00:37:24;7.65;;;4.18;;
52708;SDS011;38606;52.986;6.980;2023-08-12T00:39:50;6.20;;;3.70;;
52708;SDS011;38606;52.986;6.980;2023-08-12T00:42:15;7.38;;;4.15;;
52708;SDS011;38606;52.986;6.980;2023-08-12T00:44:41;6.18;;;4.00;;
52708;SDS011;38606;52.986;6.980;2023-08-12T00:47:07;7.63;;;3.70;;
52708;SDS011;38606;52.986;6.980;2023-08-12T00:49:32;7.07;;;3.90;;
52708;SDS011;38606;52.986;6.980;2023-08-12T00:51:58;5.43;;;3.38;;
52708;SDS011;38606;52.986;6.980;2023-08-12T00:54:26;8.70;;;3.60;;
52708;SDS011;38606;52.986;6.980;2023-08-12T00:56:53;5.72;;;3.58;;
52708;SDS011;38606;52.986;6.980;2023-08-12T00:59:19;5.63;;;3.78;;
52708;SDS011;38606;52.986;6.980;2023-08-12T01:01:46;7.45;;;4.30;;
52708;SDS011;38606;52.986;6.980;2023-08-12T01:04:12;8.48;;;4.05;;
52708;SDS011;38606;52.986;6.980;2023-08-12T01:06:38;6.68;;;4.47;;
52708;SDS011;38606;52.986;6.980;2023-08-12T01:09:04;8.57;;;4.25;;
52708;SDS011;38606;52.986;6.980;2023-08-12T01:14:38;8.02;;;4.00;;
52708;SDS011;38606;52.986;6.980;2023-08-12T01:17:06;6.05;;;4.80;;
52708;SDS011;38606;52.986;6.980;2023-08-12T01:19:37;10.93;;;5.35;;
52708;SDS011;38606;52.986;6.980;2023-08-12T01:22:06;6.50;;;5.10;;
52708;SDS011;38606;52.986;6.980;2023-08-12T01:24:35;7.85;;;5.28;;
52708;SDS011;38606;52.986;6.980;2023-08-12T01:27:01;6.95;;;5.22;;
52708;SDS011;38606;52.986;6.980;2023-08-12T01:29:27;9.35;;;5.28;;
52708;SDS011;38606;52.986;6.980;2023-08-12T01:35:03;11.80;;;6.13;;
52708;SDS011;38606;52.986;6.980;2023-08-12T01:37:43;10.38;;;5.57;;
52708;SDS011;38606;52.986;6.980;2023-08-12T01:40:10;9.85;;;5.88;;
52708;SDS011;38606;52.986;6.980;2023-08-12T01:42:37;8.63;;;5.65;;
52708;SDS011;38606;52.986;6.980;2023-08-12T01:45:04;12.85;;;6.72;;
52708;SDS011;38606;52.986;6.980;2023-08-12T01:47:31;12.27;;;6.85;;
52708;SDS011;38606;52.986;6.980;2023-08-12T01:49:57;10.75;;;6.10;;
52708;SDS011;38606;52.986;6.980;2023-08-12T01:52:23;12.20;;;6.38;;
52708;SDS011;38606;52.986;6.980;2023-08-12T01:54:49;12.20;;;7.05;;
52708;SDS011;38606;52.986;6.980;2023-08-12T01:57:15;9.75;;;6.32;;
52708;SDS011;38606;52.986;6.980;2023-08-12T01:59:41;9.30;;;7.38;;
52708;SDS011;38606;52.986;6.980;2023-08-12T02:02:09;12.13;;;7.15;;
52708;SDS011;38606;52.986;6.980;2023-08-12T02:04:35;13.82;;;7.07;;
52708;SDS011;38606;52.986;6.980;2023-08-12T02:07:02;10.10;;;6.80;;
52708;SDS011;38606;52.986;6.980;2023-08-12T02:09:29;17.27;;;9.10;;
52708;SDS011;38606;52.986;6.980;2023-08-12T02:11:55;12.98;;;7.50;;
52708;SDS011;38606;52.986;6.980;2023-08-12T02:14:21;12.50;;;7.32;;
52708;SDS011;38606;52.986;6.980;2023-08-12T02:16:47;14.32;;;8.77;;
52708;SDS011;38606;52.986;6.980;2023-08-12T02:19:14;14.48;;;8.68;;
52708;SDS011;38606;52.986;6.980;2023-08-12T02:21:41;14.20;;;8.98;;
52708;SDS011;38606;52.986;6.980;2023-08-12T02:24:07;13.48;;;8.15;;
52708;SDS011;38606;52.986;6.980;2023-08-12T02:26:33;13.48;;;8.60;;
52708;SDS011;38606;52.986;6.980;2023-08-12T02:28:59;13.00;;;8.65;;
52708;SDS011;38606;52.986;6.980;2023-08-12T02:31:25;16.02;;;8.52;;
52708;SDS011;38606;52.986;6.980;2023-08-12T02:33:50;15.68;;;9.85;;
52708;SDS011;38606;52.986;6.980;2023-08-12T02:36:16;14.50;;;8.60;;
52708;SDS011;38606;52.986;6.980;2023-08-12T02:38:42;16.10;;;9.07;;
52708;SDS011;38606;52.986;6.980;2023-08-12T02:41:07;12.18;;;8.63;;
52708;SDS011;38606;52.986;6.980;2023-08-12T02:43:33;15.85;;;9.35;;
52708;SDS011;38606;52.986;6.980;2023-08-12T02:45:59;15.75;;;9.15;;
52708;SDS011;38606;52.986;6.980;2023-08-12T02:48:25;15.70;;;9.55;;
52708;SDS011;38606;52.986;6.980;2023-08-12T02:50:50;15.25;;;8.95;;
52708;SDS011;38606;52.986;6.980;2023-08-12T02:53:16;14.43;;;8.98;;
52708;SDS011;38606;52.986;6.980;2023-08-12T02:55:42;13.05;;;8.73;;
52708;SDS011;38606;52.986;6.980;2023-08-12T02:58:10;16.33;;;8.95;;
52708;SDS011;38606;52.986;6.980;2023-08-12T03:00:35;15.20;;;9.70;;
52708;SDS011;38606;52.986;6.980;2023-08-12T03:03:01;17.63;;;9.50;;
52708;SDS011;38606;52.986;6.980;2023-08-12T03:05:27;16.80;;;10.05;;
52708;SDS011;38606;52.986;6.980;2023-08-12T03:07:52;12.52;;;8.80;;
52708;SDS011;38606;52.986;6.980;2023-08-12T03:10:21;14.20;;;9.05;;
52708;SDS011;38606;52.986;6.980;2023-08-12T03:12:47;17.05;;;9.40;;
52708;SDS011;38606;52.986;6.980;2023-08-12T03:15:13;14.68;;;9.55;;
52708;SDS011;38606;52.986;6.980;2023-08-12T03:17:39;12.50;;;9.30;;
52708;SDS011;38606;52.986;6.980;2023-08-12T03:20:05;12.75;;;8.63;;
52708;SDS011;38606;52.986;6.980;2023-08-12T03:22:34;20.55;;;10.02;;
52708;SDS011;38606;52.986;6.980;2023-08-12T03:25:03;15.88;;;9.98;;
52708;SDS011;38606;52.986;6.980;2023-08-12T03:27:30;15.65;;;10.15;;
52708;SDS011;38606;52.986;6.980;2023-08-12T03:29:55;15.70;;;9.00;;
52708;SDS011;38606;52.986;6.980;2023-08-12T03:32:21;16.27;;;10.30;;
52708;SDS011;38606;52.986;6.980;2023-08-12T03:34:47;14.15;;;9.40;;
52708;SDS011;38606;52.986;6.980;2023-08-12T03:37:12;23.00;;;11.02;;
52708;SDS011;38606;52.986;6.980;2023-08-12T03:39:38;15.48;;;9.75;;
52708;SDS011;38606;52.986;6.980;2023-08-12T03:42:04;16.52;;;11.02;;
52708;SDS011;38606;52.986;6.980;2023-08-12T03:44:30;15.85;;;10.27;;
52708;SDS011;38606;52.986;6.980;2023-08-12T03:46:55;17.02;;;11.00;;
52708;SDS011;38606;52.986;6.980;2023-08-12T03:49:21;16.30;;;10.80;;
52708;SDS011;38606;52.986;6.980;2023-08-12T03:51:47;15.57;;;10.30;;
52708;SDS011;38606;52.986;6.980;2023-08-12T03:54:12;14.05;;;11.15;;
52708;SDS011;38606;52.986;6.980;2023-08-12T03:56:38;18.05;;;10.90;;
52708;SDS011;38606;52.986;6.980;2023-08-12T03:59:04;16.92;;;10.55;;
52708;SDS011;38606;52.986;6.980;2023-08-12T04:01:30;14.40;;;11.18;;
52708;SDS011;38606;52.986;6.980;2023-08-12T04:03:56;17.95;;;10.30;;
52708;SDS011;38606;52.986;6.980;2023-08-12T04:06:21;15.25;;;10.30;;
52708;SDS011;38606;52.986;6.980;2023-08-12T04:08:47;17.40;;;10.57;;
52708;SDS011;38606;52.986;6.980;2023-08-12T04:11:13;17.60;;;11.45;;
52708;SDS011;38606;52.986;6.980;2023-08-12T04:13:38;16.60;;;11.10;;
52708;SDS011;38606;52.986;6.980;2023-08-12T04:16:04;19.40;;;12.18;;
52708;SDS011;38606;52.986;6.980;2023-08-12T04:18:30;18.38;;;12.32;;
52708;SDS011;38606;52.986;6.980;2023-08-12T04:20:55;14.98;;;10.50;;
52708;SDS011;38606;52.986;6.980;2023-08-12T04:23:21;16.35;;;11.55;;
52708;SDS011;38606;52.986;6.980;2023-08-12T04:25:47;16.73;;;10.85;;
52708;SDS011;38606;52.986;6.980;2023-08-12T04:28:13;18.13;;;10.85;;
52708;SDS011;38606;52.986;6.980;2023-08-12T04:30:41;18.10;;;10.77;;
52708;SDS011;38606;52.986;6.980;2023-08-12T04:33:11;16.38;;;11.40;;
52708;SDS011;38606;52.986;6.980;2023-08-12T04:35:38;16.75;;;10.20;;
52708;SDS011;38606;52.986;6.980;2023-08-12T04:38:04;18.00;;;11.32;;
52708;SDS011;38606;52.986;6.980;2023-08-12T04:40:30;19.90;;;11.98;;
52708;SDS011;38606;52.986;6.980;2023-08-12T04:42:57;14.07;;;10.05;;
52708;SDS011;38606;52.986;6.980;2023-08-12T04:45:25;15.55;;;11.55;;
52708;SDS011;38606;52.986;6.980;2023-08-12T04:47:51;15.82;;;10.55;;
52708;SDS011;38606;52.986;6.980;2023-08-12T04:50:17;13.93;;;10.80;;
52708;SDS011;38606;52.986;6.980;2023-08-12T04:52:42;14.30;;;10.38;;
52708;SDS011;38606;52.986;6.980;2023-08-12T04:55:08;16.23;;;11.10;;
52708;SDS011;38606;52.986;6.980;2023-08-12T04:57:35;16.23;;;11.18;;
52708;SDS011;38606;52.986;6.980;2023-08-12T05:00:01;16.15;;;11.73;;
52708;SDS011;38606;52.986;6.980;2023-08-12T05:02:37;19.15;;;11.15;;
52708;SDS011;38606;52.986;6.980;2023-08-12T05:05:03;17.05;;;12.07;;
52708;SDS011;38606;52.986;6.980;2023-08-12T05:07:29;18.92;;;12.15;;
52708;SDS011;38606;52.986;6.980;2023-08-12T05:09:56;20.25;;;12.05;;
52708;SDS011;38606;52.986;6.980;2023-08-12T05:12:22;19.90;;;12.27;;
52708;SDS011;38606;52.986;6.980;2023-08-12T05:14:47;21.55;;;13.82;;
52708;SDS011;38606;52.986;6.980;2023-08-12T05:17:13;18.25;;;12.25;;
52708;SDS011;38606;52.986;6.980;2023-08-12T05:19:39;17.77;;;11.57;;
52708;SDS011;38606;52.986;6.980;2023-08-12T05:22:04;18.88;;;11.90;;
52708;SDS011;38606;52.986;6.980;2023-08-12T05:24:30;16.45;;;11.43;;
52708;SDS011;38606;52.986;6.980;2023-08-12T05:26:56;18.92;;;11.80;;
52708;SDS011;38606;52.986;6.980;2023-08-12T05:29:22;19.30;;;12.52;;
52708;SDS011;38606;52.986;6.980;2023-08-12T05:31:47;18.85;;;12.38;;
52708;SDS011;38606;52.986;6.980;2023-08-12T05:34:13;18.90;;;12.48;;
52708;SDS011;38606;52.986;6.980;2023-08-12T05:36:39;15.73;;;11.60;;
52708;SDS011;38606;52.986;6.980;2023-08-12T05:39:04;21.13;;;13.02;;
52708;SDS011;38606;52.986;6.980;2023-08-12T05:41:33;20.90;;;11.68;;
52708;SDS011;38606;52.986;6.980;2023-08-12T05:43:58;21.27;;;12.70;;
52708;SDS011;38606;52.986;6.980;2023-08-12T05:46:24;20.08;;;12.05;;
52708;SDS011;38606;52.986;6.980;2023-08-12T05:48:50;18.83;;;13.30;;
52708;SDS011;38606;52.986;6.980;2023-08-12T05:51:16;22.77;;;13.27;;
52708;SDS011;38606;52.986;6.980;2023-08-12T05:53:41;18.35;;;13.60;;
52708;SDS011;38606;52.986;6.980;2023-08-12T05:56:07;18.92;;;12.90;;
52708;SDS011;38606;52.986;6.980;2023-08-12T05:58:33;20.77;;;12.70;;
52708;SDS011;38606;52.986;6.980;2023-08-12T06:00:58;21.17;;;14.25;;
52708;SDS011;38606;52.986;6.980;2023-08-12T06:03:24;23.77;;;13.93;;
52708;SDS011;38606;52.986;6.980;2023-08-12T06:05:50;22.20;;;15.13;;
52708;SDS011;38606;52.986;6.980;2023-08-12T06:08:15;22.30;;;15.13;;
52708;SDS011;38606;52.986;6.980;2023-08-12T06:10:41;20.00;;;14.68;;
52708;SDS011;38606;52.986;6.980;2023-08-12T06:13:07;21.50;;;15.88;;
52708;SDS011;38606;52.986;6.980;2023-08-12T06:15:33;26.58;;;16.70;;
52708;SDS011;38606;52.986;6.980;2023-08-12T06:17:59;22.60;;;16.38;;
52708;SDS011;38606;52.986;6.980;2023-08-12T06:20:25;22.92;;;16.10;;
52708;SDS011;38606;52.986;6.980;2023-08-12T06:22:51;23.60;;;16.75;;
52708;SDS011;38606;52.986;6.980;2023-08-12T06:25:17;24.33;;;16.55;;
52708;SDS011;38606;52.986;6.980;2023-08-12T06:27:45;26.55;;;16.60;;
52708;SDS011;38606;52.986;6.980;2023-08-12T06:30:12;23.08;;;16.95;;
52708;SDS011;38606;52.986;6.980;2023-08-12T06:32:39;22.40;;;17.67;;
52708;SDS011;38606;52.986;6.980;2023-08-12T06:35:05;28.08;;;17.38;;
52708;SDS011;38606;52.986;6.980;2023-08-12T06:37:31;24.15;;;16.58;;
52708;SDS011;38606;52.986;6.980;2023-08-12T06:39:57;23.63;;;17.77;;
52708;SDS011;38606;52.986;6.980;2023-08-12T06:42:23;25.75;;;17.35;;
52708;SDS011;38606;52.986;6.980;2023-08-12T06:44:58;27.83;;;16.83;;
52708;SDS011;38606;52.986;6.980;2023-08-12T06:47:25;22.50;;;15.95;;
52708;SDS011;38606;52.986;6.980;2023-08-12T06:49:52;22.45;;;16.48;;
52708;SDS011;38606;52.986;6.980;2023-08-12T06:52:18;22.38;;;16.20;;
52708;SDS011;38606;52.986;6.980;2023-08-12T06:54:44;20.90;;;16.05;;
52708;SDS011;38606;52.986;6.980;2023-08-12T06:57:09;23.60;;;15.95;;
52708;SDS011;38606;52.986;6.980;2023-08-12T06:59:36;27.15;;;17.33;;
52708;SDS011;38606;52.986;6.980;2023-08-12T07:02:03;22.13;;;16.02;;
52708;SDS011;38606;52.986;6.980;2023-08-12T07:04:29;22.27;;;16.33;;
52708;SDS011;38606;52.986;6.980;2023-08-12T07:06:54;25.65;;;17.25;;
52708;SDS011;38606;52.986;6.980;2023-08-12T07:09:20;22.67;;;17.45;;
52708;SDS011;38606;52.986;6.980;2023-08-12T07:11:46;21.88;;;17.15;;
52708;SDS011;38606;52.986;6.980;2023-08-12T07:14:12;21.63;;;17.58;;
52708;SDS011;38606;52.986;6.980;2023-08-12T07:16:38;24.30;;;18.30;;
52708;SDS011;38606;52.986;6.980;2023-08-12T07:19:03;23.80;;;18.85;;
52708;SDS011;38606;52.986;6.980;2023-08-12T07:21:29;24.75;;;17.55;;
52708;SDS011;38606;52.986;6.980;2023-08-12T07:23:55;31.30;;;19.92;;
52708;SDS011;38606;52.986;6.980;2023-08-12T07:26:20;29.77;;;19.23;;
52708;SDS011;38606;52.986;6.980;2023-08-12T07:28:46;25.77;;;20.45;;
52708;SDS011;38606;52.986;6.980;2023-08-12T07:31:12;28.02;;;20.13;;
52708;SDS011;38606;52.986;6.980;2023-08-12T07:33:38;26.55;;;19.25;;
52708;SDS011;38606;52.986;6.980;2023-08-12T07:36:04;28.25;;;20.40;;
52708;SDS011;38606;52.986;6.980;2023-08-12T07:38:30;29.17;;;19.42;;
52708;SDS011;38606;52.986;6.980;2023-08-12T07:40:55;24.92;;;18.63;;
52708;SDS011;38606;52.986;6.980;2023-08-12T07:43:21;24.95;;;18.98;;
52708;SDS011;38606;52.986;6.980;2023-08-12T07:45:51;27.27;;;18.08;;
52708;SDS011;38606;52.986;6.980;2023-08-12T07:48:18;24.80;;;18.67;;
52708;SDS011;38606;52.986;6.980;2023-08-12T07:50:44;26.95;;;19.35;;
52708;SDS011;38606;52.986;6.980;2023-08-12T07:53:10;26.27;;;18.50;;
52708;SDS011;38606;52.986;6.980;2023-08-12T07:55:36;24.02;;;17.23;;
52708;SDS011;38606;52.986;6.980;2023-08-12T07:58:01;28.88;;;19.15;;
52708;SDS011;38606;52.986;6.980;2023-08-12T08:00:29;28.73;;;19.42;;
52708;SDS011;38606;52.986;6.980;2023-08-12T08:02:55;32.58;;;20.23;;
52708;SDS011;38606;52.986;6.980;2023-08-12T08:05:20;29.88;;;20.98;;
52708;SDS011;38606;52.986;6.980;2023-08-12T08:07:46;24.27;;;19.33;;
52708;SDS011;38606;52.986;6.980;2023-08-12T08:10:12;26.77;;;19.02;;
52708;SDS011;38606;52.986;6.980;2023-08-12T08:12:38;26.80;;;19.40;;
52708;SDS011;38606;52.986;6.980;2023-08-12T08:15:04;27.20;;;20.35;;
52708;SDS011;38606;52.986;6.980;2023-08-12T08:17:30;29.52;;;20.75;;
52708;SDS011;38606;52.986;6.980;2023-08-12T08:19:56;30.58;;;19.85;;
52708;SDS011;38606;52.986;6.980;2023-08-12T08:22:21;28.15;;;18.63;;
52708;SDS011;38606;52.986;6.980;2023-08-12T08:24:47;24.58;;;18.95;;
52708;SDS011;38606;52.986;6.980;2023-08-12T08:27:13;28.27;;;19.80;;
52708;SDS011;38606;52.986;6.980;2023-08-12T08:29:39;27.67;;;20.75;;
52708;SDS011;38606;52.986;6.980;2023-08-12T08:32:05;26.77;;;20.50;;
52708;SDS011;38606;52.986;6.980;2023-08-12T08:34:31;24.08;;;19.20;;
52708;SDS011;38606;52.986;6.980;2023-08-12T08:36:57;28.75;;;20.25;;
52708;SDS011;38606;52.986;6.980;2023-08-12T08:39:22;25.92;;;19.38;;
52708;SDS011;38606;52.986;6.980;2023-08-12T08:41:49;27.58;;;18.35;;
52708;SDS011;38606;52.986;6.980;2023-08-12T08:44:15;23.08;;;18.67;;
52708;SDS011;38606;52.986;6.980;2023-08-12T08:46:43;23.63;;;18.23;;
52708;SDS011;38606;52.986;6.980;2023-08-12T08:49:10;27.55;;;19.30;;
52708;SDS011;38606;52.986;6.980;2023-08-12T08:51:39;25.10;;;17.48;;
52708;SDS011;38606;52.986;6.980;2023-08-12T08:54:06;24.80;;;17.90;;
52708;SDS011;38606;52.986;6.980;2023-08-12T08:56:33;22.67;;;17.42;;
52708;SDS011;38606;52.986;6.980;2023-08-12T08:58:59;25.75;;;18.60;;
52708;SDS011;38606;52.986;6.980;2023-08-12T09:01:25;25.63;;;18.75;;
52708;SDS011;38606;52.986;6.980;2023-08-12T09:03:53;25.73;;;17.70;;
52708;SDS011;38606;52.986;6.980;2023-08-12T09:06:21;25.70;;;19.63;;
52708;SDS011;38606;52.986;6.980;2023-08-12T09:08:48;23.60;;;18.20;;
52708;SDS011;38606;52.986;6.980;2023-08-12T09:11:15;19.00;;;15.77;;
52708;SDS011;38606;52.986;6.980;2023-08-12T09:13:42;19.80;;;15.68;;
52708;SDS011;38606;52.986;6.980;2023-08-12T09:16:07;24.13;;;18.30;;
52708;SDS011;38606;52.986;6.980;2023-08-12T09:18:34;16.83;;;13.50;;
52708;SDS011;38606;52.986;6.980;2023-08-12T09:21:00;16.17;;;13.43;;
52708;SDS011;38606;52.986;6.980;2023-08-12T09:23:26;12.02;;;8.50;;
52708;SDS011;38606;52.986;6.980;2023-08-12T09:25:52;10.02;;;8.30;;
52708;SDS011;38606;52.986;6.980;2023-08-12T09:28:18;9.00;;;7.07;;
52708;SDS011;38606;52.986;6.980;2023-08-12T09:30:51;13.25;;;7.68;;
52708;SDS011;38606;52.986;6.980;2023-08-12T09:33:28;8.85;;;6.75;;
52708;SDS011;38606;52.986;6.980;2023-08-12T09:35:54;8.40;;;6.78;;
52708;SDS011;38606;52.986;6.980;2023-08-12T09:38:22;8.80;;;6.75;;
52708;SDS011;38606;52.986;6.980;2023-08-12T09:40:47;9.57;;;6.50;;
52708;SDS011;38606;52.986;6.980;2023-08-12T09:43:13;8.77;;;5.35;;
52708;SDS011;38606;52.986;6.980;2023-08-12T09:45:43;7.07;;;4.50;;
52708;SDS011;38606;52.986;6.980;2023-08-12T09:48:10;6.30;;;4.88;;
52708;SDS011;38606;52.986;6.980;2023-08-12T09:50:35;10.00;;;6.05;;
52708;SDS011;38606;52.986;6.980;2023-08-12T09:53:01;7.00;;;5.05;;
52708;SDS011;38606;52.986;6.980;2023-08-12T09:55:30;12.63;;;6.38;;
52708;SDS011;38606;52.986;6.980;2023-08-12T09:58:00;10.98;;;6.35;;
52708;SDS011;38606;52.986;6.980;2023-08-12T10:00:30;12.57;;;6.47;;
52708;SDS011;38606;52.986;6.980;2023-08-12T10:02:56;8.20;;;5.70;;
52708;SDS011;38606;52.986;6.980;2023-08-12T10:05:27;13.63;;;7.18;;
52708;SDS011;38606;52.986;6.980;2023-08-12T10:07:53;7.40;;;5.00;;
52708;SDS011;38606;52.986;6.980;2023-08-12T10:10:23;11.25;;;6.65;;
52708;SDS011;38606;52.986;6.980;2023-08-12T10:12:48;9.05;;;6.32;;
52708;SDS011;38606;52.986;6.980;2023-08-12T10:15:15;8.50;;;5.60;;
52708;SDS011;38606;52.986;6.980;2023-08-12T10:20:21;9.07;;;5.85;;
52708;SDS011;38606;52.986;6.980;2023-08-12T10:22:48;16.23;;;6.32;;
52708;SDS011;38606;52.986;6.980;2023-08-12T10:25:15;6.68;;;5.40;;
52708;SDS011;38606;52.986;6.980;2023-08-12T10:27:43;9.68;;;6.07;;
52708;SDS011;38606;52.986;6.980;2023-08-12T10:30:09;9.35;;;4.15;;
52708;SDS011;38606;52.986;6.980;2023-08-12T10:32:36;4.57;;;3.50;;
52708;SDS011;38606;52.986;6.980;2023-08-12T10:35:02;7.45;;;4.07;;
52708;SDS011;38606;52.986;6.980;2023-08-12T10:37:31;4.80;;;3.60;;
52708;SDS011;38606;52.986;6.980;2023-08-12T10:39:58;5.60;;;3.70;;
52708;SDS011;38606;52.986;6.980;2023-08-12T10:42:44;6.93;;;3.85;;
52708;SDS011;38606;52.986;6.980;2023-08-12T10:45:14;6.35;;;3.10;;
52708;SDS011;38606;52.986;6.980;2023-08-12T10:50:34;5.40;;;2.80;;
52708;SDS011;38606;52.986;6.980;2023-08-12T10:53:01;4.63;;;3.05;;
52708;SDS011;38606;52.986;6.980;2023-08-12T10:55:50;4.05;;;2.70;;
52708;SDS011;38606;52.986;6.980;2023-08-12T11:00:54;4.47;;;2.30;;
52708;SDS011;38606;52.986;6.980;2023-08-12T11:03:45;4.13;;;2.50;;
52708;SDS011;38606;52.986;6.980;2023-08-12T11:06:13;4.03;;;2.47;;
52708;SDS011;38606;52.986;6.980;2023-08-12T11:08:54;6.88;;;2.80;;
52708;SDS011;38606;52.986;6.980;2023-08-12T11:11:22;4.18;;;2.05;;
52708;SDS011;38606;52.986;6.980;2023-08-12T11:13:58;2.90;;;2.13;;
52708;SDS011;38606;52.986;6.980;2023-08-12T11:16:36;3.20;;;2.20;;
52708;SDS011;38606;52.986;6.980;2023-08-12T11:19:03;3.45;;;2.00;;
52708;SDS011;38606;52.986;6.980;2023-08-12T11:21:29;3.83;;;2.25;;
52708;SDS011;38606;52.986;6.980;2023-08-12T11:23:55;2.78;;;2.03;;
52708;SDS011;38606;52.986;6.980;2023-08-12T11:26:23;2.80;;;2.38;;
52708;SDS011;38606;52.986;6.980;2023-08-12T11:28:49;2.70;;;1.85;;
52708;SDS011;38606;52.986;6.980;2023-08-12T11:31:16;3.17;;;2.15;;
52708;SDS011;38606;52.986;6.980;2023-08-12T11:33:42;4.55;;;2.30;;
52708;SDS011;38606;52.986;6.980;2023-08-12T11:36:08;3.72;;;1.92;;
52708;SDS011;38606;52.986;6.980;2023-08-12T11:38:34;3.17;;;2.20;;
52708;SDS011;38606;52.986;6.980;2023-08-12T11:41:00;2.35;;;2.15;;
52708;SDS011;38606;52.986;6.980;2023-08-12T11:43:29;1.70;;;1.40;;
52708;SDS011;38606;52.986;6.980;2023-08-12T11:45:57;1.35;;;1.20;;
52708;SDS011;38606;52.986;6.980;2023-08-12T11:48:24;0.98;;;0.95;;
52708;SDS011;38606;52.986;6.980;2023-08-12T11:51:29;2.30;;;0.90;;
52708;SDS011;38606;52.986;6.980;2023-08-12T11:53:55;1.25;;;1.10;;
52708;SDS011;38606;52.986;6.980;2023-08-12T11:56:21;1.85;;;1.08;;
52708;SDS011;38606;52.986;6.980;2023-08-12T11:58:51;1.50;;;1.10;;
52708;SDS011;38606;52.986;6.980;2023-08-12T12:01:19;1.80;;;1.50;;
52708;SDS011;38606;52.986;6.980;2023-08-12T12:03:50;1.10;;;1.00;;
52708;SDS011;38606;52.986;6.980;2023-08-12T12:09:08;0.98;;;0.95;;
52708;SDS011;38606;52.986;6.980;2023-08-12T12:11:38;1.35;;;1.00;;
52708;SDS011;38606;52.986;6.980;2023-08-12T12:14:05;1.35;;;0.98;;
52708;SDS011;38606;52.986;6.980;2023-08-12T12:16:39;1.88;;;1.20;;
52708;SDS011;38606;52.986;6.980;2023-08-12T12:19:19;2.88;;;1.30;;
52708;SDS011;38606;52.986;6.980;2023-08-12T12:21:46;1.63;;;1.00;;
52708;SDS011;38606;52.986;6.980;2023-08-12T12:24:13;1.58;;;1.15;;
52708;SDS011;38606;52.986;6.980;2023-08-12T12:26:39;1.60;;;1.40;;
52708;SDS011;38606;52.986;6.980;2023-08-12T12:29:06;1.35;;;1.25;;
52708;SDS011;38606;52.986;6.980;2023-08-12T12:31:33;2.20;;;1.50;;
52708;SDS011;38606;52.986;6.980;2023-08-12T12:34:01;3.55;;;1.38;;
52708;SDS011;38606;52.986;6.980;2023-08-12T12:36:35;5.93;;;1.20;;
52708;SDS011;38606;52.986;6.980;2023-08-12T12:39:02;1.05;;;1.00;;
52708;SDS011;38606;52.986;6.980;2023-08-12T12:41:31;1.00;;;0.90;;
52708;SDS011;38606;52.986;6.980;2023-08-12T12:44:04;1.55;;;0.93;;
52708;SDS011;38606;52.986;6.980;2023-08-12T12:46:30;2.55;;;1.00;;
52708;SDS011;38606;52.986;6.980;2023-08-12T12:48:56;3.25;;;1.23;;
52708;SDS011;38606;52.986;6.980;2023-08-12T12:51:21;1.27;;;0.80;;
52708;SDS011;38606;52.986;6.980;2023-08-12T12:53:47;1.27;;;0.90;;
52708;SDS011;38606;52.986;6.980;2023-08-12T12:56:13;0.82;;;0.82;;
52708;SDS011;38606;52.986;6.980;2023-08-12T12:58:39;1.05;;;0.73;;
52708;SDS011;38606;52.986;6.980;2023-08-12T13:01:05;1.17;;;0.90;;
52708;SDS011;38606;52.986;6.980;2023-08-12T13:03:31;1.38;;;0.77;;
52708;SDS011;38606;52.986;6.980;2023-08-12T13:05:57;1.65;;;0.80;;
52708;SDS011;38606;52.986;6.980;2023-08-12T13:08:24;2.03;;;0.90;;
52708;SDS011;38606;52.986;6.980;2023-08-12T13:10:50;1.10;;;1.00;;
52708;SDS011;38606;52.986;6.980;2023-08-12T13:13:17;2.70;;;1.10;;
52708;SDS011;38606;52.986;6.980;2023-08-12T13:15:43;1.98;;;1.10;;
52708;SDS011;38606;52.986;6.980;2023-08-12T13:18:09;3.25;;;1.05;;
52708;SDS011;38606;52.986;6.980;2023-08-12T13:20:36;1.48;;;1.20;;
52708;SDS011;38606;52.986;6.980;2023-08-12T13:23:02;4.78;;;1.63;;
52708;SDS011;38606;52.986;6.980;2023-08-12T13:25:29;2.42;;;1.13;;
52708;SDS011;38606;52.986;6.980;2023-08-12T13:27:57;4.32;;;1.58;;
52708;SDS011;38606;52.986;6.980;2023-08-12T13:30:24;1.98;;;1.27;;
52708;SDS011;38606;52.986;6.980;2023-08-12T13:32:49;4.20;;;1.45;;
52708;SDS011;38606;52.986;6.980;2023-08-12T13:35:16;4.60;;;1.40;;
52708;SDS011;38606;52.986;6.980;2023-08-12T13:37:42;4.97;;;1.63;;
52708;SDS011;38606;52.986;6.980;2023-08-12T13:40:08;3.67;;;1.38;;
52708;SDS011;38606;52.986;6.980;2023-08-12T13:42:37;4.40;;;1.30;;
52708;SDS011;38606;52.986;6.980;2023-08-12T13:45:03;5.00;;;1.50;;
52708;SDS011;38606;52.986;6.980;2023-08-12T13:47:30;3.53;;;1.33;;
52708;SDS011;38606;52.986;6.980;2023-08-12T13:49:55;4.90;;;1.70;;
52708;SDS011;38606;52.986;6.980;2023-08-12T13:52:21;4.60;;;1.40;;
52708;SDS011;38606;52.986;6.980;2023-08-12T13:54:47;4.82;;;1.52;;
52708;SDS011;38606;52.986;6.980;2023-08-12T13:57:13;3.47;;;1.50;;
52708;SDS011;38606;52.986;6.980;2023-08-12T13:59:39;3.60;;;1.50;;
52708;SDS011;38606;52.986;6.980;2023-08-12T14:02:08;4.85;;;1.45;;
52708;SDS011;38606;52.986;6.980;2023-08-12T14:04:35;5.07;;;1.60;;
52708;SDS011;38606;52.986;6.980;2023-08-12T14:07:00;4.68;;;1.50;;
52708;SDS011;38606;52.986;6.980;2023-08-12T14:09:26;3.65;;;1.40;;
52708;SDS011;38606;52.986;6.980;2023-08-12T14:11:53;4.65;;;1.50;;
52708;SDS011;38606;52.986;6.980;2023-08-12T14:14:18;6.45;;;1.50;;
52708;SDS011;38606;52.986;6.980;2023-08-12T14:16:44;4.70;;;1.73;;
52708;SDS011;38606;52.986;6.980;2023-08-12T14:19:10;4.05;;;1.58;;
52708;SDS011;38606;52.986;6.980;2023-08-12T14:21:36;7.15;;;2.00;;
52708;SDS011;38606;52.986;6.980;2023-08-12T14:24:01;6.80;;;1.95;;
52708;SDS011;38606;52.986;6.980;2023-08-12T14:26:27;5.32;;;1.73;;
52708;SDS011;38606;52.986;6.980;2023-08-12T14:28:53;5.22;;;1.30;;
52708;SDS011;38606;52.986;6.980;2023-08-12T14:31:18;4.90;;;1.42;;
52708;SDS011;38606;52.986;6.980;2023-08-12T14:33:44;4.25;;;1.50;;
52708;SDS011;38606;52.986;6.980;2023-08-12T14:36:10;5.00;;;1.70;;
52708;SDS011;38606;52.986;6.980;2023-08-12T14:38:35;7.22;;;2.22;;
52708;SDS011;38606;52.986;6.980;2023-08-12T14:41:01;6.45;;;1.88;;
52708;SDS011;38606;52.986;6.980;2023-08-12T14:43:27;4.25;;;1.60;;
52708;SDS011;38606;52.986;6.980;2023-08-12T14:45:52;5.55;;;1.90;;
52708;SDS011;38606;52.986;6.980;2023-08-12T14:48:18;6.45;;;1.73;;
52708;SDS011;38606;52.986;6.980;2023-08-12T14:50:44;8.25;;;1.88;;